Time;durP1;ratioP1;P1;durP2;ratioP2;P2;SDS_P1;SDS_P2;PMS_P1;PMS_P2;Temp;Humidity;BMP_temperature;BMP_pressure;BME280_temperature;BME280_humidity;BME280_pressure;Samples;Min_cycle;Max_cycle;Signal;HPM_P1;HPM_P2
2021/12/07 00:02:17;;;;;;;3.00;1.50;;;7.10;70.30;;;;;;2339898;54;20985;-72
2021/12/07 00:04:44;;;;;;;3.70;1.92;;;7.10;70.60;;;;;;2339979;54;21028;-71
2021/12/07 00:07:10;;;;;;;4.00;1.77;;;7.00;70.50;;;;;;2557644;53;20950;-73
2021/12/07 00:09:36;;;;;;;3.67;1.87;;;7.10;70.80;;;;;;2582194;53;21004;-73
2021/12/07 00:12:04;;;;;;;3.50;1.73;;;7.10;70.80;;;;;;2340152;54;20953;-71
2021/12/07 00:14:37;;;;;;;5.65;2.17;;;7.10;70.70;;;;;;2321520;54;21002;-73
2021/12/07 00:17:03;;;;;;;4.45;2.08;;;7.10;71.20;;;;;;2335993;54;20984;-72
2021/12/07 00:19:29;;;;;;;3.20;1.80;;;7.10;71.20;;;;;;2339738;54;21020;-71
2021/12/07 00:21:59;;;;;;;3.97;2.12;;;7.10;71.30;;;;;;2339776;54;20944;-72
2021/12/07 00:24:26;;;;;;;4.10;2.10;;;7.10;71.40;;;;;;2569071;53;21030;-71
2021/12/07 00:26:52;;;;;;;4.75;2.10;;;7.20;71.60;;;;;;2569369;53;20968;-72
2021/12/07 00:29:19;;;;;;;3.60;1.87;;;7.10;71.40;;;;;;2315876;54;21414;-73
2021/12/07 00:31:54;;;;;;;3.33;1.85;;;7.20;71.40;;;;;;2319721;54;20966;-72
2021/12/07 00:38:16;;;;;;;3.00;1.50;;;7.20;71.30;;;;;;2339741;54;21363;-73
2021/12/07 00:40:42;;;;;;;3.55;1.80;;;7.20;71.40;;;;;;2585747;53;21325;-74
2021/12/07 00:43:09;;;;;;;3.75;1.95;;;7.20;71.00;;;;;;2339880;54;21024;-73
2021/12/07 00:45:36;;;;;;;4.35;1.87;;;7.20;71.10;;;;;;2339698;54;20937;-71
2021/12/07 00:48:03;;;;;;;4.78;2.30;;;7.20;71.10;;;;;;2329568;54;20966;-73
2021/12/07 00:50:32;;;;;;;4.22;2.42;;;7.20;71.20;;;;;;2327663;54;21017;-73
2021/12/07 00:53:02;;;;;;;4.80;2.75;;;7.20;71.10;;;;;;2316943;54;21768;-70
2021/12/07 00:55:29;;;;;;;4.75;1.95;;;7.20;71.20;;;;;;2339589;54;21048;-72
2021/12/07 00:57:58;;;;;;;4.05;2.25;;;7.10;71.10;;;;;;2339754;54;20957;-74
2021/12/07 01:00:32;;;;;;;3.87;2.08;;;7.10;71.20;;;;;;2532479;54;21022;-72
2021/12/07 01:02:58;;;;;;;4.62;2.30;;;7.10;71.20;;;;;;2313871;54;21020;-72
2021/12/07 01:05:29;;;;;;;4.32;2.45;;;7.10;71.50;;;;;;2320122;54;20917;-74
2021/12/07 01:08:14;;;;;;;4.17;2.20;;;7.10;71.40;;;;;;2334835;54;20974;-74
2021/12/07 01:25:07;;;;;;;3.47;1.80;;;7.10;71.80;;;;;;2585881;53;20965;-73
2021/12/07 01:27:33;;;;;;;4.20;1.87;;;7.20;71.90;;;;;;2339871;54;20913;-72
2021/12/07 01:30:35;;;;;;;3.28;1.50;;;7.20;72.00;;;;;;2570090;53;20950;-72
2021/12/07 01:34:18;;;;;;;2.97;1.55;;;7.20;72.10;;;;;;2325738;54;21823;-74
2021/12/07 01:59:53;;;;;;;3.22;1.58;;;7.30;71.90;;;;;;2573396;53;20942;-72
2021/12/07 02:02:21;;;;;;;4.53;1.50;;;7.30;72.00;;;;;;2327921;54;20944;-74
2021/12/07 02:04:47;;;;;;;2.83;1.40;;;7.20;71.70;;;;;;2587070;53;20949;-72
2021/12/07 02:07:13;;;;;;;2.70;1.17;;;7.20;71.90;;;;;;2342093;54;21565;-74
2021/12/07 02:09:43;;;;;;;2.65;1.25;;;7.20;71.90;;;;;;2341504;54;21386;-72
2021/12/07 02:12:11;;;;;;;2.33;1.10;;;7.20;72.10;;;;;;2341571;54;21005;-72
2021/12/07 02:14:37;;;;;;;2.72;1.20;;;7.20;72.10;;;;;;2587727;53;20969;-71
2021/12/07 02:17:14;;;;;;;2.17;0.98;;;7.30;72.30;;;;;;2341497;54;20972;-74
2021/12/07 02:19:41;;;;;;;2.28;1.00;;;7.30;72.20;;;;;;2330400;54;21005;-72
2021/12/07 02:22:09;;;;;;;2.28;1.00;;;7.30;72.40;;;;;;2330112;54;20949;-72
2021/12/07 02:24:35;;;;;;;2.72;1.00;;;7.30;72.30;;;;;;2318606;54;21789;-74
2021/12/07 02:27:02;;;;;;;2.67;1.20;;;7.30;72.30;;;;;;2341940;54;20977;-73
2021/12/07 02:29:29;;;;;;;2.12;0.90;;;7.30;72.40;;;;;;2555100;53;20964;-74
2021/12/07 02:31:56;;;;;;;2.30;1.00;;;7.40;72.60;;;;;;2556352;53;20943;-74
2021/12/07 02:34:24;;;;;;;2.83;1.02;;;7.40;72.60;;;;;;2586023;53;20961;-74
2021/12/07 02:36:50;;;;;;;2.20;0.90;;;7.40;72.60;;;;;;2560039;53;20975;-74
2021/12/07 02:39:16;;;;;;;2.75;0.95;;;7.40;72.60;;;;;;2335918;54;20961;-74
2021/12/07 02:41:43;;;;;;;2.53;0.80;;;7.50;72.60;;;;;;2587359;53;20992;-73
2021/12/07 02:44:09;;;;;;;2.30;0.80;;;7.50;72.60;;;;;;2555378;53;21014;-72
2021/12/07 02:46:37;;;;;;;2.30;1.00;;;7.50;72.50;;;;;;2341395;54;21004;-74
2021/12/07 02:49:05;;;;;;;1.80;0.70;;;7.50;72.40;;;;;;2341151;54;20961;-72
2021/12/07 02:51:32;;;;;;;1.85;0.80;;;7.50;72.50;;;;;;2573252;53;21002;-73
2021/12/07 02:53:58;;;;;;;1.98;0.90;;;7.60;72.60;;;;;;2327040;54;20984;-73
2021/12/07 02:56:25;;;;;;;2.20;0.80;;;7.60;72.80;;;;;;2341562;54;20917;-73
2021/12/07 02:58:56;;;;;;;2.37;1.00;;;7.60;72.40;;;;;;2341714;54;20933;-73
2021/12/07 03:01:27;;;;;;;2.03;0.85;;;7.60;72.30;;;;;;2318168;54;21841;-74
2021/12/07 03:04:04;;;;;;;1.65;0.82;;;7.60;72.40;;;;;;2341529;54;21016;-74
2021/12/07 03:27:04;;;;;;;2.30;0.80;;;7.50;71.30;;;;;;2555306;53;21004;-72
2021/12/07 03:29:31;;;;;;;1.37;0.60;;;7.50;71.20;;;;;;2588054;53;20945;-72
2021/12/07 03:31:58;;;;;;;1.25;0.62;;;7.50;71.50;;;;;;2341951;54;21000;-73
2021/12/07 03:34:24;;;;;;;3.15;0.70;;;7.50;71.50;;;;;;2587089;53;21037;-74
2021/12/07 03:36:50;;;;;;;2.22;0.80;;;7.50;71.50;;;;;;2341833;54;21035;-74
2021/12/07 03:39:17;;;;;;;2.00;0.68;;;7.50;71.30;;;;;;2341989;54;20936;-72
2021/12/07 03:41:43;;;;;;;1.62;0.62;;;7.40;71.30;;;;;;2341034;54;20941;-73
2021/12/07 03:44:10;;;;;;;1.40;0.70;;;7.40;71.30;;;;;;2587322;53;20945;-73
2021/12/07 03:46:36;;;;;;;1.77;0.70;;;7.40;71.40;;;;;;2341730;54;20968;-72
2021/12/07 03:49:03;;;;;;;1.50;0.77;;;7.40;71.30;;;;;;2320327;54;21030;-73
2021/12/07 03:51:29;;;;;;;1.17;0.55;;;7.40;71.30;;;;;;2318527;54;21410;-73
2021/12/07 03:53:56;;;;;;;1.60;0.60;;;7.40;71.40;;;;;;2341428;54;20999;-72
2021/12/07 03:56:22;;;;;;;1.27;0.50;;;7.30;71.50;;;;;;2587843;53;21008;-71
2021/12/07 03:58:51;;;;;;;3.40;0.70;;;7.30;71.90;;;;;;2342040;54;20964;-72
2021/12/07 04:01:17;;;;;;;1.62;0.62;;;7.30;72.10;;;;;;2587573;53;20981;-73
2021/12/07 04:03:45;;;;;;;1.05;0.47;;;7.30;72.20;;;;;;2587765;53;20957;-74
2021/12/07 04:06:11;;;;;;;1.20;0.50;;;7.40;72.40;;;;;;2587953;53;21033;-73
2021/12/07 04:08:38;;;;;;;1.70;0.60;;;7.40;72.50;;;;;;2339334;54;20990;-72
2021/12/07 04:11:04;;;;;;;1.52;0.50;;;7.40;72.40;;;;;;2323069;54;21013;-73
2021/12/07 04:13:31;;;;;;;1.70;0.65;;;7.40;72.10;;;;;;2321046;54;21759;-72
2021/12/07 04:16:00;;;;;;;3.45;0.60;;;7.40;72.00;;;;;;2334743;54;21718;-73
2021/12/07 04:18:28;;;;;;;3.00;0.80;;;7.40;71.70;;;;;;2325830;54;21391;-73
2021/12/07 04:20:54;;;;;;;1.30;0.60;;;7.40;71.70;;;;;;2558755;53;21028;-74
2021/12/07 04:23:20;;;;;;;2.22;0.85;;;7.40;71.90;;;;;;2338758;54;21398;-73
2021/12/07 04:25:49;;;;;;;1.52;0.57;;;7.40;71.70;;;;;;2341280;54;20951;-73
2021/12/07 04:28:16;;;;;;;1.70;0.62;;;7.40;71.60;;;;;;2329591;54;21762;-73
2021/12/07 04:30:45;;;;;;;2.60;0.55;;;7.40;71.70;;;;;;2330343;54;20933;-73
2021/12/07 04:33:11;;;;;;;2.03;0.68;;;7.40;71.90;;;;;;2586992;53;21025;-73
2021/12/07 04:35:39;;;;;;;2.28;0.80;;;7.40;72.00;;;;;;2564530;53;20918;-73
2021/12/07 04:38:05;;;;;;;1.50;0.70;;;7.40;72.20;;;;;;2310964;55;21093;-73
2021/12/07 04:40:32;;;;;;;3.67;0.80;;;7.40;72.20;;;;;;2320549;54;20929;-73
2021/12/07 04:42:58;;;;;;;1.95;0.55;;;7.40;72.20;;;;;;2587667;53;20997;-72
2021/12/07 04:58:41;;;;;;;3.60;0.70;;;7.50;72.30;;;;;;2341954;54;21032;-72
2021/12/07 05:01:11;;;;;;;1.60;0.70;;;7.50;72.10;;;;;;2588003;53;21131;-72
2021/12/07 05:03:38;;;;;;;2.75;0.70;;;7.50;72.30;;;;;;2585525;53;20925;-74
2021/12/07 05:06:08;;;;;;;2.10;0.80;;;7.50;72.20;;;;;;2339882;54;21257;-70
2021/12/07 05:08:44;;;;;;;1.92;0.80;;;7.50;72.10;;;;;;2338764;54;21026;-71
2021/12/07 05:11:30;;;;;;;2.17;0.80;;;7.50;72.10;;;;;;2532809;53;21918;-73
2021/12/07 05:25:26;;;;;;;5.25;1.62;;;7.60;72.10;;;;;;2585378;53;21024;-72
2021/12/07 05:40:55;;;;;;;4.30;1.65;;;7.50;71.10;;;;;;2339597;54;21002;-71
2021/12/07 05:43:23;;;;;;;4.07;1.33;;;7.50;71.40;;;;;;2328857;54;20962;-72
2021/12/07 05:45:52;;;;;;;5.03;1.20;;;7.50;71.50;;;;;;2328908;54;20949;-73
2021/12/07 05:48:18;;;;;;;2.70;1.30;;;7.50;71.50;;;;;;2342693;54;21425;-71
2021/12/07 05:50:45;;;;;;;4.72;1.33;;;7.40;71.50;;;;;;2553701;53;21465;-71
2021/12/07 05:53:11;;;;;;;2.92;1.35;;;7.50;71.40;;;;;;2339581;54;21260;-72
2021/12/07 05:55:37;;;;;;;3.83;1.30;;;7.40;71.70;;;;;;2317043;54;20937;-72
2021/12/07 05:58:04;;;;;;;4.15;1.30;;;7.40;71.70;;;;;;2339500;54;20925;-71
2021/12/07 06:00:31;;;;;;;4.80;1.55;;;7.40;71.80;;;;;;2339736;54;20956;-70
2021/12/07 06:03:05;;;;;;;4.50;1.50;;;7.40;72.00;;;;;;2339071;54;20935;-73
2021/12/07 06:05:35;;;;;;;4.70;1.50;;;7.50;72.50;;;;;;2585215;53;20964;-70
2021/12/07 06:08:01;;;;;;;3.22;1.55;;;7.50;71.70;;;;;;2585286;53;20917;-70
2021/12/07 06:10:28;;;;;;;2.95;1.40;;;7.40;71.60;;;;;;2339575;54;21870;-70
2021/12/07 06:12:54;;;;;;;3.03;1.30;;;7.50;71.70;;;;;;2585580;53;20961;-71
2021/12/07 06:15:22;;;;;;;2.72;1.30;;;7.50;71.80;;;;;;2340496;54;20984;-71
2021/12/07 06:17:51;;;;;;;3.60;1.60;;;7.40;71.70;;;;;;2323202;54;20955;-73
2021/12/07 06:20:20;;;;;;;3.40;1.42;;;7.50;71.50;;;;;;2554136;53;20967;-72
2021/12/07 06:23:15;;;;;;;3.10;1.58;;;7.40;71.60;;;;;;2577241;53;20953;-72
2021/12/07 06:26:07;;;;;;;2.90;1.30;;;7.40;71.50;;;;;;2581083;53;20996;-72
2021/12/07 06:28:33;;;;;;;3.20;1.50;;;7.50;71.80;;;;;;2326465;54;21055;-71
2021/12/07 06:31:00;;;;;;;3.62;1.58;;;7.40;71.90;;;;;;2573207;53;20921;-71
2021/12/07 06:33:28;;;;;;;3.42;1.48;;;7.50;71.90;;;;;;2585667;53;20989;-70
2021/12/07 06:35:58;;;;;;;3.20;1.20;;;7.40;71.90;;;;;;2576871;53;21018;-73
2021/12/07 06:38:25;;;;;;;3.72;1.30;;;7.40;72.20;;;;;;2320923;54;20985;-73
2021/12/07 06:40:51;;;;;;;2.90;1.17;;;7.50;71.80;;;;;;2339541;54;20933;-71
2021/12/07 06:43:18;;;;;;;2.60;1.20;;;7.20;71.70;;;;;;2331096;54;21049;-72
2021/12/07 06:45:45;;;;;;;4.75;1.30;;;7.50;72.00;;;;;;2326250;54;20944;-72
2021/12/07 06:48:11;;;;;;;3.90;1.37;;;7.50;71.90;;;;;;2339246;54;21042;-71
2021/12/07 06:50:38;;;;;;;4.25;1.25;;;7.50;72.00;;;;;;2557723;53;21009;-73
2021/12/07 06:53:04;;;;;;;3.65;1.67;;;7.50;71.80;;;;;;2339007;54;21077;-72
2021/12/07 06:55:30;;;;;;;3.70;1.42;;;7.50;71.70;;;;;;2584618;53;20969;-72
2021/12/07 06:57:58;;;;;;;3.50;1.40;;;7.50;71.90;;;;;;2317452;54;21101;-71
2021/12/07 07:00:24;;;;;;;3.78;1.50;;;7.50;71.90;;;;;;2340002;54;20933;-74
2021/12/07 07:02:53;;;;;;;3.22;1.12;;;7.50;71.90;;;;;;2340162;54;21402;-72
2021/12/07 07:05:20;;;;;;;3.58;1.35;;;7.50;72.00;;;;;;2552224;53;21052;-74
2021/12/07 07:07:46;;;;;;;3.72;1.42;;;7.50;71.60;;;;;;2340973;54;21004;-73
2021/12/07 07:10:14;;;;;;;3.10;1.15;;;7.50;71.70;;;;;;2585461;53;21076;-71
2021/12/07 07:12:41;;;;;;;2.03;0.93;;;7.50;71.80;;;;;;2563793;53;21024;-73
2021/12/07 07:15:09;;;;;;;3.28;1.33;;;7.60;72.00;;;;;;2309200;54;21417;-71
2021/12/07 07:17:37;;;;;;;2.72;1.15;;;7.50;71.80;;;;;;2339327;54;20925;-72
2021/12/07 07:20:05;;;;;;;2.87;1.12;;;7.50;71.90;;;;;;2339874;54;21001;-73
2021/12/07 07:22:33;;;;;;;2.62;1.12;;;7.60;72.60;;;;;;2339737;54;22254;-73
2021/12/07 07:24:59;;;;;;;3.22;1.40;;;7.60;72.00;;;;;;2339183;54;20965;-72
2021/12/07 07:27:25;;;;;;;3.30;1.00;;;7.60;71.80;;;;;;2340088;54;21024;-73
2021/12/07 07:29:52;;;;;;;3.83;1.50;;;7.60;71.90;;;;;;2302663;55;21045;-73
2021/12/07 07:32:19;;;;;;;3.60;1.30;;;7.60;71.90;;;;;;2332095;54;20984;-74
2021/12/07 07:34:45;;;;;;;5.07;1.30;;;7.60;71.90;;;;;;2585926;53;21777;-72
2021/12/07 07:37:11;;;;;;;3.75;1.40;;;7.60;71.80;;;;;;2574806;53;21054;-72
2021/12/07 07:39:39;;;;;;;2.85;1.10;;;7.60;71.80;;;;;;2323066;54;21774;-71
2021/12/07 07:42:09;;;;;;;3.50;1.27;;;7.60;71.90;;;;;;2340136;54;20937;-73
2021/12/07 07:44:35;;;;;;;2.30;1.02;;;7.70;72.00;;;;;;2339550;54;20945;-73
2021/12/07 07:47:03;;;;;;;4.40;1.30;;;7.60;72.00;;;;;;2585615;53;21004;-71
2021/12/07 07:49:29;;;;;;;4.10;1.30;;;7.70;72.10;;;;;;2554839;53;21377;-73
2021/12/07 07:51:56;;;;;;;4.07;1.10;;;7.70;72.10;;;;;;2338436;54;21518;-73
2021/12/07 07:54:23;;;;;;;2.78;0.80;;;7.70;72.10;;;;;;2553250;53;20984;-73
2021/12/07 07:56:49;;;;;;;3.37;0.80;;;7.70;72.10;;;;;;2319302;54;21054;-72
2021/12/07 07:59:15;;;;;;;1.92;0.80;;;7.70;72.10;;;;;;2316993;54;21786;-73
2021/12/07 08:01:42;;;;;;;2.42;0.77;;;7.70;72.10;;;;;;2337249;54;21663;-74
2021/12/07 08:04:08;;;;;;;1.95;0.77;;;7.80;72.20;;;;;;2339577;54;20948;-73
2021/12/07 08:06:39;;;;;;;5.32;0.90;;;7.80;72.20;;;;;;2585296;53;20936;-73
2021/12/07 08:09:06;;;;;;;3.55;1.10;;;7.80;72.20;;;;;;2585123;53;20980;-74
2021/12/07 08:11:33;;;;;;;2.80;0.90;;;7.80;72.20;;;;;;2585607;53;21021;-70
2021/12/07 08:13:59;;;;;;;2.85;0.88;;;7.90;72.20;;;;;;2339770;54;21060;-73
2021/12/07 08:16:28;;;;;;;4.20;0.90;;;7.90;72.20;;;;;;2583674;53;20945;-74
2021/12/07 08:18:54;;;;;;;2.83;1.00;;;7.90;72.20;;;;;;2315205;55;21802;-74
2021/12/07 08:21:21;;;;;;;3.03;1.10;;;7.90;72.30;;;;;;2339493;54;21148;-71
2021/12/07 08:23:47;;;;;;;3.30;1.25;;;8.00;72.30;;;;;;2340445;54;20929;-74
2021/12/07 08:26:16;;;;;;;3.25;1.00;;;7.90;72.00;;;;;;2316543;54;21004;-73
2021/12/07 08:28:49;;;;;;;3.15;1.27;;;8.00;72.20;;;;;;2339328;54;21033;-73
2021/12/07 08:31:16;;;;;;;2.00;0.90;;;8.00;72.30;;;;;;2584847;53;21037;-73
2021/12/07 08:33:42;;;;;;;1.90;0.75;;;8.00;72.20;;;;;;2549503;53;21044;-72
2021/12/07 08:36:08;;;;;;;2.10;0.80;;;8.00;72.20;;;;;;2337153;54;20989;-72
2021/12/07 08:38:36;;;;;;;3.80;1.12;;;8.10;72.40;;;;;;2326367;54;21019;-71
2021/12/07 08:41:04;;;;;;;2.55;1.10;;;8.10;72.40;;;;;;2316197;54;20915;-73
2021/12/07 08:43:33;;;;;;;2.33;0.98;;;8.10;72.40;;;;;;2331624;54;21066;-73
2021/12/07 08:46:01;;;;;;;3.37;1.20;;;8.10;72.40;;;;;;2298013;55;21450;-71
2021/12/07 08:48:27;;;;;;;3.12;1.08;;;8.20;72.50;;;;;;2311002;54;20940;-72
2021/12/07 08:50:53;;;;;;;2.65;1.02;;;8.20;72.50;;;;;;2338446;54;20969;-72
2021/12/07 08:53:21;;;;;;;5.00;1.15;;;8.20;72.50;;;;;;2339545;54;21702;-72
2021/12/07 09:01:18;;;;;;;3.53;1.05;;;8.30;72.50;;;;;;2333344;54;20978;-73
2021/12/07 09:03:45;;;;;;;3.95;1.42;;;8.30;72.30;;;;;;2322121;54;21687;-71
2021/12/07 09:06:11;;;;;;;4.30;1.58;;;8.40;72.30;;;;;;2316496;54;20950;-73
2021/12/07 09:08:37;;;;;;;3.10;1.30;;;8.40;72.10;;;;;;2339287;54;20997;-71
2021/12/07 09:11:03;;;;;;;4.03;1.50;;;8.40;72.10;;;;;;2316300;55;20949;-73
2021/12/07 09:13:30;;;;;;;3.35;1.40;;;8.40;72.00;;;;;;2331936;54;20934;-73
2021/12/07 09:15:59;;;;;;;5.05;2.10;;;8.40;72.80;;;;;;2324523;54;21001;-72
2021/12/07 09:18:26;;;;;;;5.95;1.90;;;8.40;71.90;;;;;;2585665;53;21004;-72
2021/12/07 09:20:53;;;;;;;4.57;1.50;;;8.40;71.80;;;;;;2339733;54;20937;-74
2021/12/07 09:23:19;;;;;;;4.37;1.60;;;8.50;72.00;;;;;;2585239;53;21001;-74
2021/12/07 09:25:48;;;;;;;3.33;1.60;;;8.50;71.90;;;;;;2339953;54;21476;-72
2021/12/07 09:28:14;;;;;;;4.70;2.03;;;8.50;72.20;;;;;;2339548;54;20949;-72
2021/12/07 09:30:41;;;;;;;4.82;1.70;;;8.50;71.80;;;;;;2329427;54;20978;-73
2021/12/07 09:33:07;;;;;;;4.40;1.70;;;8.50;72.10;;;;;;2326325;54;20977;-72
2021/12/07 09:35:34;;;;;;;3.37;1.52;;;8.60;72.30;;;;;;2557273;53;20950;-71
2021/12/07 09:38:03;;;;;;;3.22;1.40;;;8.60;72.50;;;;;;2314974;54;20956;-73
2021/12/07 09:40:29;;;;;;;3.90;1.30;;;8.60;72.60;;;;;;2318328;54;20963;-72
2021/12/07 09:42:56;;;;;;;4.43;1.55;;;8.70;72.30;;;;;;2327488;54;20993;-72
2021/12/07 09:45:23;;;;;;;4.75;1.35;;;8.70;72.40;;;;;;2338490;54;21480;-74
2021/12/07 09:47:49;;;;;;;4.45;1.10;;;8.80;72.70;;;;;;2567521;53;20950;-73
2021/12/07 09:50:18;;;;;;;4.07;1.00;;;8.90;73.00;;;;;;2326332;54;20945;-73
2021/12/07 09:52:44;;;;;;;4.25;1.37;;;8.90;73.10;;;;;;2290105;55;20935;-73
2021/12/07 09:55:11;;;;;;;3.78;1.10;;;9.00;73.50;;;;;;2545099;53;21929;-74
2021/12/07 09:57:37;;;;;;;6.20;1.02;;;9.10;73.70;;;;;;2295903;54;21507;-74
2021/12/07 10:00:05;;;;;;;3.97;1.08;;;9.20;74.10;;;;;;2524242;54;20932;-73
2021/12/07 10:02:31;;;;;;;3.80;1.17;;;9.30;73.80;;;;;;2288334;54;21082;-74
2021/12/07 10:04:57;;;;;;;2.78;0.90;;;9.40;73.70;;;;;;2311058;54;21014;-73
2021/12/07 10:07:24;;;;;;;4.65;1.17;;;9.50;73.60;;;;;;2310886;54;21098;-75
2021/12/07 10:09:50;;;;;;;3.17;1.30;;;9.50;73.30;;;;;;2551464;54;20944;-72
2021/12/07 10:12:18;;;;;;;3.40;1.20;;;9.60;73.00;;;;;;2317104;54;20933;-74
2021/12/07 10:14:45;;;;;;;3.37;1.23;;;9.60;73.00;;;;;;2290535;55;20984;-73
2021/12/07 10:17:11;;;;;;;5.18;1.60;;;9.70;73.10;;;;;;2309557;54;20995;-73
2021/12/07 10:19:42;;;;;;;11.70;4.43;;;9.70;73.20;;;;;;2309747;54;21474;-72
2021/12/07 10:22:15;;;;;;;7.82;3.62;;;9.80;73.10;;;;;;2311144;54;21847;-73
2021/12/07 10:24:46;;;;;;;5.68;2.40;;;9.90;72.80;;;;;;2312158;54;20955;-73
2021/12/07 10:27:12;;;;;;;6.00;2.10;;;9.90;72.30;;;;;;2311854;54;21865;-73
2021/12/07 10:29:39;;;;;;;4.25;1.70;;;10.00;71.20;;;;;;2311808;54;20983;-74
2021/12/07 10:32:07;;;;;;;3.40;1.40;;;10.00;71.00;;;;;;2311680;54;20931;-73
2021/12/07 10:34:36;;;;;;;4.03;1.20;;;10.00;71.20;;;;;;2551569;54;21410;-73
2021/12/07 10:37:14;;;;;;;5.10;1.73;;;10.10;71.70;;;;;;2547416;53;22010;-73
2021/12/07 10:39:49;;;;;;;4.70;1.83;;;10.20;71.30;;;;;;2526981;54;20979;-75
2021/12/07 10:42:19;;;;;;;4.70;1.50;;;10.30;72.30;;;;;;2311568;55;20954;-75
2021/12/07 10:45:10;;;;;;;3.95;1.20;;;10.40;72.30;;;;;;2570092;53;21281;-75
2021/12/07 10:47:36;;;;;;;4.65;1.45;;;10.50;71.60;;;;;;2577083;53;20980;-73
2021/12/07 10:50:05;;;;;;;3.95;1.10;;;10.50;71.90;;;;;;2578117;53;21361;-74
2021/12/07 10:52:35;;;;;;;4.80;1.40;;;10.60;71.60;;;;;;2333933;55;21285;-75
2021/12/07 10:55:25;;;;;;;5.45;1.30;;;10.60;71.30;;;;;;2333940;55;21031;-73
2021/12/07 10:57:56;;;;;;;5.18;1.20;;;10.60;70.50;;;;;;2314568;55;20956;-73
2021/12/07 11:00:27;;;;;;;7.32;1.50;;;10.70;70.70;;;;;;2315729;54;22129;-75
2021/12/07 11:03:04;;;;;;;4.55;1.80;;;10.70;70.30;;;;;;2334568;55;20907;-73
2021/12/07 11:05:53;;;;;;;4.22;1.40;;;10.70;69.80;;;;;;2333611;55;21393;-73
2021/12/07 11:08:21;;;;;;;6.57;2.45;;;10.60;69.70;;;;;;2314825;55;20937;-75
2021/12/07 11:10:49;;;;;;;5.65;1.75;;;10.60;69.60;;;;;;2316506;54;20949;-74
2021/12/07 11:13:26;;;;;;;5.50;1.33;;;10.50;69.00;;;;;;2557924;53;20968;-74
2021/12/07 11:16:00;;;;;;;4.20;1.75;;;10.50;69.20;;;;;;2317440;54;22187;-71
2021/12/07 11:18:40;;;;;;;6.30;1.67;;;10.50;68.80;;;;;;2566218;53;20919;-72
2021/12/07 11:21:16;;;;;;;7.12;1.37;;;10.40;68.80;;;;;;2333477;55;20907;-74
2021/12/07 11:23:54;;;;;;;3.95;1.40;;;10.50;69.90;;;;;;2554143;53;20997;-72
2021/12/07 11:30:11;;;;;;;5.28;1.52;;;10.50;70.30;;;;;;2578402;53;20943;-73
2021/12/07 11:32:47;;;;;;;6.53;2.20;;;10.50;70.30;;;;;;2575453;53;20929;-72
2021/12/07 11:35:19;;;;;;;3.40;1.35;;;10.60;69.80;;;;;;2315058;54;21902;-73
2021/12/07 11:37:45;;;;;;;3.72;1.33;;;10.60;69.40;;;;;;2328539;54;20985;-73
2021/12/07 11:40:14;;;;;;;6.18;1.52;;;10.60;69.90;;;;;;2559296;53;21983;-74
2021/12/07 11:42:42;;;;;;;4.37;1.30;;;10.60;70.10;;;;;;2332253;55;20931;-73
2021/12/07 11:45:14;;;;;;;4.37;1.23;;;10.60;70.80;;;;;;2578143;53;20944;-73
2021/12/07 11:47:42;;;;;;;5.40;1.65;;;10.60;70.10;;;;;;2325694;54;20961;-73
2021/12/07 11:53:40;;;;;;;3.40;1.40;;;10.60;70.00;;;;;;2413985;53;2393686;-74
2021/12/07 11:56:07;;;;;;;4.53;1.83;;;10.70;68.30;;;;;;2314282;54;20951;-72
2021/12/07 11:58:34;;;;;;;5.43;2.17;;;10.70;70.30;;;;;;2312904;53;20933;-73
2021/12/07 12:01:05;;;;;;;6.20;2.55;;;10.80;70.20;;;;;;2532153;53;20926;-73
2021/12/07 12:03:35;;;;;;;4.87;1.65;;;10.70;69.90;;;;;;2330824;54;21734;-73
2021/12/07 12:06:02;;;;;;;4.35;1.52;;;10.80;70.40;;;;;;2338287;54;20921;-73
2021/12/07 12:08:30;;;;;;;4.45;1.40;;;10.80;70.70;;;;;;2338499;54;20925;-74
2021/12/07 12:12:49;;;;;;;6.47;2.60;;;10.90;71.20;;;;;;2315552;54;21025;-75
2021/12/07 12:17:04;;;;;;;5.45;2.10;;;11.10;69.50;;;;;;2584553;53;21044;-72
2021/12/07 12:21:41;;;;;;;5.95;2.00;;;11.50;70.20;;;;;;2314687;54;20953;-73
2021/12/07 12:25:11;;;;;;;3.50;1.30;;;11.70;72.10;;;;;;2317419;54;21732;-73
2021/12/07 12:27:39;;;;;;;4.47;1.35;;;12.10;71.00;;;;;;2551607;53;21573;-72
2021/12/07 12:30:26;;;;;;;3.92;1.20;;;12.30;73.60;;;;;;2328931;54;20922;-74
2021/12/07 12:32:55;;;;;;;6.47;2.12;;;12.50;72.00;;;;;;2328676;54;20952;-74
2021/12/07 12:35:54;;;;;;;4.30;1.52;;;12.60;72.70;;;;;;2584178;53;20965;-74
2021/12/07 12:38:25;;;;;;;6.28;1.20;;;12.80;69.80;;;;;;2338147;54;21009;-73
2021/12/07 12:41:07;;;;;;;3.12;1.20;;;13.00;72.00;;;;;;2552570;53;20990;-73
2021/12/07 12:43:55;;;;;;;4.45;1.02;;;13.10;71.00;;;;;;2338360;54;20905;-76
2021/12/07 12:46:31;;;;;;;3.47;0.82;;;13.30;71.00;;;;;;2338325;54;20945;-76
2021/12/07 12:49:07;;;;;;;5.57;1.05;;;13.40;70.30;;;;;;2563173;53;20912;-75
2021/12/07 12:51:43;;;;;;;;;;;13.50;71.00;;;;;;2334370;54;21077;-73
2021/12/07 12:54:09;;;;;;;3.80;0.80;;;13.60;68.90;;;;;;2519652;54;20674;-75
2021/12/07 12:56:39;;;;;;;2.85;1.05;;;13.70;70.90;;;;;;2551478;54;20898;-74
2021/12/07 12:59:09;;;;;;;5.47;1.90;;;13.80;70.80;;;;;;2551201;54;21837;-75
2021/12/07 13:01:39;;;;;;;7.07;2.72;;;13.90;70.10;;;;;;2535941;54;20962;-73
2021/12/07 13:04:13;;;;;;;6.60;2.20;;;14.00;70.10;;;;;;2310910;54;21013;-75
2021/12/07 13:06:54;;;;;;;5.32;1.60;;;14.10;69.60;;;;;;2545379;53;20945;-75
2021/12/07 13:09:34;;;;;;;6.10;1.60;;;14.20;69.20;;;;;;2326295;54;20942;-76
2021/12/07 13:12:11;;;;;;;3.28;1.40;;;14.30;68.50;;;;;;2573259;53;21451;-76
2021/12/07 13:15:05;;;;;;;5.60;1.50;;;14.40;68.20;;;;;;2308535;54;20997;-76
2021/12/07 13:17:41;;;;;;;6.50;1.40;;;14.40;67.20;;;;;;2573808;53;20927;-77
2021/12/07 13:20:25;;;;;;;5.40;1.40;;;14.50;68.00;;;;;;2339206;54;20973;-73
2021/12/07 13:23:11;;;;;;;5.68;1.30;;;14.50;66.90;;;;;;2338342;54;21872;-75
2021/12/07 13:25:48;;;;;;;4.07;1.00;;;14.50;66.20;;;;;;2584330;53;21811;-76
2021/12/07 13:28:33;;;;;;;3.62;0.95;;;14.50;66.30;;;;;;2339374;54;20957;-73
2021/12/07 13:31:23;;;;;;;5.47;1.20;;;14.50;65.60;;;;;;2325666;54;21550;-74
2021/12/07 13:33:55;;;;;;;4.32;1.50;;;14.50;64.90;;;;;;2331046;54;21469;-75
2021/12/07 13:37:13;;;;;;;3.42;1.30;;;14.50;66.20;;;;;;2583775;53;20953;-75
2021/12/07 13:39:52;;;;;;;5.22;1.62;;;14.40;65.90;;;;;;2524962;54;21035;-74
2021/12/07 13:42:24;;;;;;;3.60;1.00;;;14.40;65.60;;;;;;2523414;54;21825;-72
2021/12/07 13:45:07;;;;;;;7.03;1.23;;;14.40;65.50;;;;;;2524316;54;21000;-75
2021/12/07 13:47:36;;;;;;;;;;;14.20;64.50;;;;;;2532274;54;21028;-73
2021/12/07 13:50:11;;;;;;;5.12;0.85;;;14.10;63.60;;;;;;2298256;54;20138;-75
2021/12/07 13:52:45;;;;;;;2.87;1.02;;;14.00;65.20;;;;;;2314313;54;21428;-74
2021/12/07 13:55:14;;;;;;;4.03;0.90;;;13.80;65.00;;;;;;2272488;55;20972;-74
2021/12/07 13:57:41;;;;;;;3.50;0.82;;;13.70;65.20;;;;;;2542516;54;20952;-74
2021/12/07 14:00:18;;;;;;;4.35;1.40;;;13.60;65.50;;;;;;2310175;55;20927;-75
2021/12/07 14:02:49;;;;;;;3.70;1.10;;;13.50;65.50;;;;;;2550900;53;21019;-74
2021/12/07 14:05:22;;;;;;;4.10;1.08;;;13.30;66.10;;;;;;2571319;53;20976;-76
2021/12/07 14:07:49;;;;;;;4.18;1.50;;;13.20;65.40;;;;;;2338194;54;20937;-73
2021/12/07 14:10:30;;;;;;;4.93;1.48;;;13.10;65.60;;;;;;2314938;54;20997;-74
2021/12/07 14:12:57;;;;;;;5.40;1.65;;;13.00;64.90;;;;;;2338137;54;20945;-75
2021/12/07 14:15:29;;;;;;;5.28;1.90;;;12.90;65.00;;;;;;2338275;54;21012;-72
2021/12/07 14:18:00;;;;;;;5.40;2.20;;;12.70;64.30;;;;;;2583619;53;21025;-74
2021/12/07 14:20:50;;;;;;;6.25;1.70;;;12.60;64.60;;;;;;2338155;54;20976;-76
2021/12/07 14:23:52;;;;;;;6.32;1.30;;;12.50;65.50;;;;;;2583592;53;20961;-75
2021/12/07 14:26:23;;;;;;;5.15;1.27;;;12.40;65.90;;;;;;2339084;54;21092;-74
2021/12/07 14:29:08;;;;;;;4.22;1.50;;;12.30;65.80;;;;;;2550589;53;21459;-74
2021/12/07 14:31:56;;;;;;;4.70;1.10;;;12.20;65.50;;;;;;2338282;54;20909;-73
2021/12/07 14:34:27;;;;;;;4.57;1.40;;;12.20;64.80;;;;;;2338225;54;20984;-74
2021/12/07 14:37:04;;;;;;;4.43;1.10;;;12.20;65.60;;;;;;2584177;53;21762;-73
2021/12/07 14:39:38;;;;;;;3.87;0.85;;;12.00;65.20;;;;;;2337957;54;20949;-73
2021/12/07 14:42:07;;;;;;;4.55;1.10;;;11.90;65.50;;;;;;2338049;54;21473;-75
2021/12/07 14:44:38;;;;;;;4.90;1.12;;;11.80;65.60;;;;;;2338758;54;21099;-72
2021/12/07 14:47:07;;;;;;;4.53;1.42;;;11.70;65.50;;;;;;2315202;54;21020;-75
2021/12/07 14:49:38;;;;;;;4.75;1.23;;;11.60;65.70;;;;;;2583907;53;22340;-72
2021/12/07 14:52:11;;;;;;;3.08;1.20;;;11.50;65.60;;;;;;2337711;54;20984;-73
2021/12/07 14:54:37;;;;;;;4.62;1.35;;;11.40;65.20;;;;;;2583468;53;21064;-73
2021/12/07 14:57:07;;;;;;;3.22;1.40;;;11.30;65.40;;;;;;2337851;54;20972;-73
2021/12/07 14:59:35;;;;;;;5.25;1.60;;;11.20;65.30;;;;;;2338424;54;21063;-73
2021/12/07 15:02:09;;;;;;;3.80;1.30;;;11.10;65.10;;;;;;2338354;54;21529;-73
2021/12/07 15:04:38;;;;;;;3.58;1.30;;;10.90;64.90;;;;;;2583960;53;20917;-72
2021/12/07 15:07:15;;;;;;;4.35;1.55;;;10.80;65.00;;;;;;2337768;54;20984;-74
2021/12/07 15:09:42;;;;;;;4.50;1.80;;;10.70;64.40;;;;;;2315178;54;21017;-73